< < Back
Terminal Aerodrome Forecast


Current Version              Previous Versions:   1  2  3  4  5  6  7  8  9  

Terminal Aerodrome Forecast

348
FTUS42 KFFC 271732
TAFFTY
TAF
KFTY 271732Z 2718/2818 14007KT P6SM SCT050 BKN070
     FM280000 11003KT P6SM FEW060 SCT250
     FM281700 09005KT P6SM SCT045 SCT250=



Latest METAR

455
SAUS70 KWBC 272200 RRH
MTRFTY
METAR KFTY 272153Z 15012G15KT 10SM CLR 29/16 A3003 RMK AO2 SLP158
T02940156


USA.gov is the U.S. government's official web portal to all federal, state and local government web resources and services.